Weather at Vlorë Air Base [CLOSED]

Public forecast

Using degrees Celsius for public forecast. Weather courtesy of forecast.io.

Closest aviation weather report (METAR) to Vlorë Air Base

Closest report is Corfu Ioannis Kapodistrias International Airport, 56.2 nm (104.1 km) SSE.

2024/02/23 17:20 (retrieved 25 minutes ago)

LGKR 231720Z 17011KT 9999 SCT016 SCT025 OVC080 15/13 Q1016 NOSIG

Closest aviation forecast (TAF) to Vlorë Air Base

Closest forecast is Corfu Ioannis Kapodistrias International Airport, 56.2 nm (104.1 km) SSE.

2024/02/23 12:12 (retrieved 6 hours ago)

TAF LGKR 231100Z 2312/2412 16012KT 9999 FEW015 SCT025 BKN080 TEMPO 2319/2412 16012G22KT PROB40 TEMPO 2312/2412 5000 RA FEW016TCU BKN025 BKN070 PROB30 TEMPO 2404/2412 4000 TSRA FEW010 FEW016CB BKN020 BKN070